Ocean Breeze — CFH7579 — position and weather

sailwx.info

Track history (hours):
 
Tides and Currents Weather Stations Pressure Air Temp Water Temp Dewpoint Dewpoint Depression Visibility Wind Speed Wind Dir Waves Ship Positions

Ocean Breeze

Last reported at 2017-Nov-05 21:18 UTC. Time now 2017-Dec-18 20:31 UTC.
Position N 49°19' W 123°05'.
Warning: this ship's position is 42 days out of date.

Length 14 m; draft 0.6 m.

Type: Pleasure craft. MMSI: 316011497.

Date/timePositionNaut miles runAvg speedWind from/ knotsBaromVisibWave heightAir tempDewpointWater temp
2017-Nov-05 21:18N 49°19' W 123°05'0 0.0
2017-Nov-05 21:00N 49°19' W 123°05'3 6.6
2017-Nov-05 20:30N 49°18' W 123°00'4 8.4
2017-Nov-05 20:00N 49°20' W 122°55'4 0.1
2017-Nov-04 18:51N 49°23' W 122°53'3 8.4
2017-Nov-04 18:29N 49°21' W 122°55'3 5.9
2017-Nov-04 18:00N 49°18' W 122°57'5 7.8
2017-Nov-04 17:25N 49°18' W 123°04'1 0.0
2017-Nov-02 19:43N 49°19' W 123°05'0 0.0
2017-Nov-02 18:46N 49°19' W 123°05'0 0.0
2017-Nov-02 18:22N 49°19' W 123°05'0 0.0
2017-Nov-02 17:52N 49°19' W 123°05'0 0.0
2017-Nov-02 16:50N 49°19' W 123°05'0 0.0
2017-Nov-02 13:23N 49°19' W 123°05'0 0.0
2017-Nov-02 12:17N 49°19' W 123°05'0 0.0
2017-Nov-02 01:36N 49°19' W 123°05'0 0.0
2017-Nov-01 21:47N 49°19' W 123°05'0 0.0
2017-Nov-01 01:31N 49°19' W 123°05'0 0.0
2017-Nov-01 01:13N 49°19' W 123°05'0 0.0
2017-Nov-01 00:55N 49°19' W 123°05'0 0.0
2017-Nov-01 00:28N 49°19' W 123°05'0 0.0
2017-Nov-01 00:00N 49°19' W 123°05'0 0.0
2017-Oct-31 23:29N 49°19' W 123°05'0 0.0
2017-Oct-31 22:59N 49°19' W 123°05'0 0.0
2017-Oct-31 22:26N 49°19' W 123°05'0 0.0
2017-Oct-31 21:59N 49°19' W 123°05'0 0.0
2017-Oct-31 21:29N 49°19' W 123°05'0 0.0
2017-Oct-31 20:54N 49°19' W 123°05'0 0.0
2017-Oct-31 20:21N 49°19' W 123°05'0 0.0
2017-Oct-31 19:54N 49°19' W 123°05'0 0.0
2017-Oct-31 19:00N 49°19' W 123°05'0 0.0
2017-Oct-31 08:03N 49°19' W 123°05'0 0.0
2017-Oct-31 07:45N 49°19' W 123°05'0 0.0
2017-Oct-31 07:30N 49°19' W 123°05'0 0.0
2017-Oct-31 05:51N 49°19' W 123°05'0 0.0
2017-Oct-31 05:21N 49°19' W 123°05'0 0.0
2017-Oct-31 04:57N 49°19' W 123°05'0 0.0
2017-Oct-31 01:33N 49°19' W 123°05'0 0.1
2017-Oct-31 01:30N 49°19' W 123°05'0 0.0
2017-Oct-31 00:57N 49°19' W 123°05'0 0.0
2017-Oct-31 00:30N 49°19' W 123°05'0 0.0
2017-Oct-31 00:00N 49°19' W 123°05'0 0.0
2017-Oct-30 23:06N 49°19' W 123°05'0 0.4
2017-Oct-30 23:00N 49°19' W 123°05'0 0.1
2017-Oct-30 22:27N 49°19' W 123°05'0 0.4
2017-Oct-30 22:00N 49°19' W 123°05'4 7.7
2017-Oct-30 21:30N 49°18' W 122°60'4 8.3
2017-Oct-30 21:00N 49°20' W 122°55'4 8.4
2017-Oct-30 20:30N 49°24' W 122°52'  
Track history (hours):
 
Tides and Currents Weather Stations Pressure Air Temp Water Temp Dewpoint Dewpoint Depression Visibility Wind Speed Wind Dir Waves Ship Positions

Ocean Breeze

Last reported at 2017-Nov-05 21:18 UTC. Time now 2017-Dec-18 20:31 UTC.
Position N 49°19' W 123°05'.
Warning: this ship's position is 42 days out of date.

Length 14 m; draft 0.6 m.

Type: Pleasure craft. MMSI: 316011497.

Date/timePositionNaut miles runAvg speedWind from/ knotsBaromVisibWave heightAir tempDewpointWater temp
2017-Nov-05 21:18N 49°19' W 123°05'0 0.0
2017-Nov-05 21:00N 49°19' W 123°05'3 6.6
2017-Nov-05 20:30N 49°18' W 123°00'4 8.4
2017-Nov-05 20:00N 49°20' W 122°55'4 0.1
2017-Nov-04 18:51N 49°23' W 122°53'3 8.4
2017-Nov-04 18:29N 49°21' W 122°55'3 5.9
2017-Nov-04 18:00N 49°18' W 122°57'5 7.8
2017-Nov-04 17:25N 49°18' W 123°04'1 0.0
2017-Nov-02 19:43N 49°19' W 123°05'0 0.0
2017-Nov-02 18:46N 49°19' W 123°05'0 0.0
2017-Nov-02 18:22N 49°19' W 123°05'0 0.0
2017-Nov-02 17:52N 49°19' W 123°05'0 0.0
2017-Nov-02 16:50N 49°19' W 123°05'0 0.0
2017-Nov-02 13:23N 49°19' W 123°05'0 0.0
2017-Nov-02 12:17N 49°19' W 123°05'0 0.0
2017-Nov-02 01:36N 49°19' W 123°05'0 0.0
2017-Nov-01 21:47N 49°19' W 123°05'0 0.0
2017-Nov-01 01:31N 49°19' W 123°05'0 0.0
2017-Nov-01 01:13N 49°19' W 123°05'0 0.0
2017-Nov-01 00:55N 49°19' W 123°05'0 0.0
2017-Nov-01 00:28N 49°19' W 123°05'0 0.0
2017-Nov-01 00:00N 49°19' W 123°05'0 0.0
2017-Oct-31 23:29N 49°19' W 123°05'0 0.0
2017-Oct-31 22:59N 49°19' W 123°05'0 0.0
2017-Oct-31 22:26N 49°19' W 123°05'0 0.0
2017-Oct-31 21:59N 49°19' W 123°05'0 0.0
2017-Oct-31 21:29N 49°19' W 123°05'0 0.0
2017-Oct-31 20:54N 49°19' W 123°05'0 0.0
2017-Oct-31 20:21N 49°19' W 123°05'0 0.0
2017-Oct-31 19:54N 49°19' W 123°05'0 0.0
2017-Oct-31 19:00N 49°19' W 123°05'0 0.0
2017-Oct-31 08:03N 49°19' W 123°05'0 0.0
2017-Oct-31 07:45N 49°19' W 123°05'0 0.0
2017-Oct-31 07:30N 49°19' W 123°05'0 0.0
2017-Oct-31 05:51N 49°19' W 123°05'0 0.0
2017-Oct-31 05:21N 49°19' W 123°05'0 0.0
2017-Oct-31 04:57N 49°19' W 123°05'0 0.0
2017-Oct-31 01:33N 49°19' W 123°05'0 0.1
2017-Oct-31 01:30N 49°19' W 123°05'0 0.0
2017-Oct-31 00:57N 49°19' W 123°05'0 0.0
2017-Oct-31 00:30N 49°19' W 123°05'0 0.0
2017-Oct-31 00:00N 49°19' W 123°05'0 0.0
2017-Oct-30 23:06N 49°19' W 123°05'0 0.4
2017-Oct-30 23:00N 49°19' W 123°05'0 0.1
2017-Oct-30 22:27N 49°19' W 123°05'0 0.4
2017-Oct-30 22:00N 49°19' W 123°05'4 7.7
2017-Oct-30 21:30N 49°18' W 122°60'4 8.3
2017-Oct-30 21:00N 49°20' W 122°55'4 8.4
2017-Oct-30 20:30N 49°24' W 122°52'  

Dump ship's entire track history